sensor_id;sensor_type;location;lat;lon;timestamp;P1;durP1;ratioP1;P2;durP2;ratioP2
40072;SDS011;25774;52.256;9.356;2023-04-15T00:01:47;9.02;;;4.03;;
40072;SDS011;25774;52.256;9.356;2023-04-15T00:04:12;8.10;;;4.65;;
40072;SDS011;25774;52.256;9.356;2023-04-15T00:06:37;8.57;;;4.03;;
40072;SDS011;25774;52.256;9.356;2023-04-15T00:09:04;6.22;;;3.88;;
40072;SDS011;25774;52.256;9.356;2023-04-15T00:11:29;8.77;;;4.57;;
40072;SDS011;25774;52.256;9.356;2023-04-15T00:13:54;8.07;;;4.37;;
40072;SDS011;25774;52.256;9.356;2023-04-15T00:16:19;7.73;;;4.00;;
40072;SDS011;25774;52.256;9.356;2023-04-15T00:18:45;8.33;;;4.47;;
40072;SDS011;25774;52.256;9.356;2023-04-15T00:21:10;8.70;;;4.30;;
40072;SDS011;25774;52.256;9.356;2023-04-15T00:23:36;6.30;;;3.67;;
40072;SDS011;25774;52.256;9.356;2023-04-15T00:26:03;7.75;;;4.07;;
40072;SDS011;25774;52.256;9.356;2023-04-15T00:28:28;8.95;;;4.40;;
40072;SDS011;25774;52.256;9.356;2023-04-15T00:30:53;8.67;;;4.53;;
40072;SDS011;25774;52.256;9.356;2023-04-15T00:33:18;7.93;;;4.13;;
40072;SDS011;25774;52.256;9.356;2023-04-15T00:35:43;7.77;;;4.77;;
40072;SDS011;25774;52.256;9.356;2023-04-15T00:38:09;7.07;;;4.10;;
40072;SDS011;25774;52.256;9.356;2023-04-15T00:40:34;7.03;;;3.87;;
40072;SDS011;25774;52.256;9.356;2023-04-15T00:42:59;7.33;;;4.27;;
40072;SDS011;25774;52.256;9.356;2023-04-15T00:45:25;9.30;;;3.50;;
40072;SDS011;25774;52.256;9.356;2023-04-15T00:47:52;9.23;;;4.07;;
40072;SDS011;25774;52.256;9.356;2023-04-15T00:50:18;8.57;;;4.23;;
40072;SDS011;25774;52.256;9.356;2023-04-15T00:52:43;7.78;;;4.00;;
40072;SDS011;25774;52.256;9.356;2023-04-15T00:55:09;8.40;;;4.20;;
40072;SDS011;25774;52.256;9.356;2023-04-15T00:57:35;8.30;;;4.38;;
40072;SDS011;25774;52.256;9.356;2023-04-15T01:00:01;8.50;;;4.60;;
40072;SDS011;25774;52.256;9.356;2023-04-15T01:02:27;6.65;;;3.92;;
40072;SDS011;25774;52.256;9.356;2023-04-15T01:04:55;7.20;;;3.92;;
40072;SDS011;25774;52.256;9.356;2023-04-15T01:07:20;7.30;;;3.78;;
40072;SDS011;25774;52.256;9.356;2023-04-15T01:09:45;6.73;;;4.57;;
40072;SDS011;25774;52.256;9.356;2023-04-15T01:12:13;8.35;;;4.43;;
40072;SDS011;25774;52.256;9.356;2023-04-15T01:14:40;7.95;;;4.13;;
40072;SDS011;25774;52.256;9.356;2023-04-15T01:17:05;6.70;;;4.03;;
40072;SDS011;25774;52.256;9.356;2023-04-15T01:19:31;7.78;;;4.00;;
40072;SDS011;25774;52.256;9.356;2023-04-15T01:21:57;8.03;;;4.57;;
40072;SDS011;25774;52.256;9.356;2023-04-15T01:24:22;9.57;;;4.60;;
40072;SDS011;25774;52.256;9.356;2023-04-15T01:26:50;7.85;;;4.18;;
40072;SDS011;25774;52.256;9.356;2023-04-15T01:29:16;8.77;;;4.72;;
40072;SDS011;25774;52.256;9.356;2023-04-15T01:31:51;9.65;;;4.85;;
40072;SDS011;25774;52.256;9.356;2023-04-15T01:34:16;10.00;;;4.90;;
40072;SDS011;25774;52.256;9.356;2023-04-15T01:36:41;7.70;;;4.30;;
40072;SDS011;25774;52.256;9.356;2023-04-15T01:39:06;11.87;;;4.40;;
40072;SDS011;25774;52.256;9.356;2023-04-15T01:41:32;8.30;;;4.17;;
40072;SDS011;25774;52.256;9.356;2023-04-15T01:43:57;7.90;;;4.17;;
40072;SDS011;25774;52.256;9.356;2023-04-15T01:46:22;6.63;;;4.13;;
40072;SDS011;25774;52.256;9.356;2023-04-15T01:48:48;8.97;;;4.70;;
40072;SDS011;25774;52.256;9.356;2023-04-15T01:51:13;8.97;;;4.83;;
40072;SDS011;25774;52.256;9.356;2023-04-15T01:53:38;7.13;;;4.50;;
40072;SDS011;25774;52.256;9.356;2023-04-15T01:56:03;11.10;;;4.70;;
40072;SDS011;25774;52.256;9.356;2023-04-15T01:58:29;9.13;;;5.03;;
40072;SDS011;25774;52.256;9.356;2023-04-15T02:00:54;7.27;;;4.07;;
40072;SDS011;25774;52.256;9.356;2023-04-15T02:03:19;8.87;;;4.53;;
40072;SDS011;25774;52.256;9.356;2023-04-15T02:05:45;9.13;;;4.60;;
40072;SDS011;25774;52.256;9.356;2023-04-15T02:08:10;8.63;;;4.30;;
40072;SDS011;25774;52.256;9.356;2023-04-15T02:10:36;7.95;;;4.43;;
40072;SDS011;25774;52.256;9.356;2023-04-15T02:13:01;11.93;;;4.63;;
40072;SDS011;25774;52.256;9.356;2023-04-15T02:15:26;9.63;;;4.73;;
40072;SDS011;25774;52.256;9.356;2023-04-15T02:17:52;9.40;;;5.07;;
40072;SDS011;25774;52.256;9.356;2023-04-15T02:20:19;10.50;;;4.70;;
40072;SDS011;25774;52.256;9.356;2023-04-15T02:22:45;9.85;;;5.18;;
40072;SDS011;25774;52.256;9.356;2023-04-15T02:25:11;9.35;;;5.07;;
40072;SDS011;25774;52.256;9.356;2023-04-15T02:27:36;11.63;;;5.97;;
40072;SDS011;25774;52.256;9.356;2023-04-15T02:30:02;11.18;;;6.30;;
40072;SDS011;25774;52.256;9.356;2023-04-15T02:32:28;12.37;;;6.80;;
40072;SDS011;25774;52.256;9.356;2023-04-15T02:34:53;11.87;;;6.53;;
40072;SDS011;25774;52.256;9.356;2023-04-15T02:37:18;12.23;;;5.90;;
40072;SDS011;25774;52.256;9.356;2023-04-15T02:39:44;13.57;;;7.35;;
40072;SDS011;25774;52.256;9.356;2023-04-15T02:42:09;12.50;;;6.63;;
40072;SDS011;25774;52.256;9.356;2023-04-15T02:44:35;13.60;;;7.63;;
40072;SDS011;25774;52.256;9.356;2023-04-15T02:47:00;13.37;;;7.60;;
40072;SDS011;25774;52.256;9.356;2023-04-15T02:49:25;14.83;;;7.70;;
40072;SDS011;25774;52.256;9.356;2023-04-15T02:51:53;13.43;;;7.38;;
40072;SDS011;25774;52.256;9.356;2023-04-15T02:54:19;14.98;;;7.53;;
40072;SDS011;25774;52.256;9.356;2023-04-15T02:56:44;15.50;;;8.67;;
40072;SDS011;25774;52.256;9.356;2023-04-15T02:59:10;14.43;;;8.17;;
40072;SDS011;25774;52.256;9.356;2023-04-15T03:01:36;14.13;;;7.78;;
40072;SDS011;25774;52.256;9.356;2023-04-15T03:04:01;16.00;;;9.10;;
40072;SDS011;25774;52.256;9.356;2023-04-15T03:06:26;14.87;;;8.20;;
40072;SDS011;25774;52.256;9.356;2023-04-15T03:08:53;13.30;;;7.40;;
40072;SDS011;25774;52.256;9.356;2023-04-15T03:11:19;14.85;;;7.70;;
40072;SDS011;25774;52.256;9.356;2023-04-15T03:13:44;15.40;;;8.30;;
40072;SDS011;25774;52.256;9.356;2023-04-15T03:16:09;15.70;;;8.13;;
40072;SDS011;25774;52.256;9.356;2023-04-15T03:18:36;15.63;;;8.17;;
40072;SDS011;25774;52.256;9.356;2023-04-15T03:21:01;15.50;;;8.68;;
40072;SDS011;25774;52.256;9.356;2023-04-15T03:23:27;17.23;;;8.57;;
40072;SDS011;25774;52.256;9.356;2023-04-15T03:25:53;13.13;;;7.80;;
40072;SDS011;25774;52.256;9.356;2023-04-15T03:28:21;17.33;;;8.60;;
40072;SDS011;25774;52.256;9.356;2023-04-15T03:30:47;16.83;;;9.03;;
40072;SDS011;25774;52.256;9.356;2023-04-15T03:33:12;16.00;;;8.60;;
40072;SDS011;25774;52.256;9.356;2023-04-15T03:35:37;16.03;;;9.20;;
40072;SDS011;25774;52.256;9.356;2023-04-15T03:38:02;15.30;;;8.50;;
40072;SDS011;25774;52.256;9.356;2023-04-15T03:40:27;15.27;;;8.77;;
40072;SDS011;25774;52.256;9.356;2023-04-15T03:42:54;14.13;;;8.07;;
40072;SDS011;25774;52.256;9.356;2023-04-15T03:45:19;17.38;;;10.02;;
40072;SDS011;25774;52.256;9.356;2023-04-15T03:47:44;18.13;;;9.00;;
40072;SDS011;25774;52.256;9.356;2023-04-15T03:50:09;18.60;;;9.57;;
40072;SDS011;25774;52.256;9.356;2023-04-15T03:52:35;19.75;;;9.32;;
40072;SDS011;25774;52.256;9.356;2023-04-15T03:55:00;17.20;;;9.87;;
40072;SDS011;25774;52.256;9.356;2023-04-15T03:57:26;18.93;;;9.47;;
40072;SDS011;25774;52.256;9.356;2023-04-15T03:59:51;21.50;;;11.03;;
40072;SDS011;25774;52.256;9.356;2023-04-15T04:02:16;18.10;;;10.07;;
40072;SDS011;25774;52.256;9.356;2023-04-15T04:04:42;22.73;;;10.83;;
40072;SDS011;25774;52.256;9.356;2023-04-15T04:07:07;19.85;;;10.13;;
40072;SDS011;25774;52.256;9.356;2023-04-15T04:09:33;20.30;;;11.47;;
40072;SDS011;25774;52.256;9.356;2023-04-15T04:11:58;21.67;;;11.03;;
40072;SDS011;25774;52.256;9.356;2023-04-15T04:14:23;18.65;;;9.75;;
40072;SDS011;25774;52.256;9.356;2023-04-15T04:16:53;20.40;;;11.55;;
40072;SDS011;25774;52.256;9.356;2023-04-15T04:19:18;20.50;;;11.57;;
40072;SDS011;25774;52.256;9.356;2023-04-15T04:21:44;24.57;;;11.93;;
40072;SDS011;25774;52.256;9.356;2023-04-15T04:24:09;22.60;;;11.67;;
40072;SDS011;25774;52.256;9.356;2023-04-15T04:26:35;19.87;;;9.93;;
40072;SDS011;25774;52.256;9.356;2023-04-15T04:29:02;20.57;;;10.70;;
40072;SDS011;25774;52.256;9.356;2023-04-15T04:31:27;20.63;;;11.10;;
40072;SDS011;25774;52.256;9.356;2023-04-15T04:33:52;20.03;;;11.03;;
40072;SDS011;25774;52.256;9.356;2023-04-15T04:36:18;22.07;;;11.57;;
40072;SDS011;25774;52.256;9.356;2023-04-15T04:38:43;22.33;;;11.97;;
40072;SDS011;25774;52.256;9.356;2023-04-15T04:41:08;20.53;;;11.93;;
40072;SDS011;25774;52.256;9.356;2023-04-15T04:43:33;21.27;;;11.10;;
40072;SDS011;25774;52.256;9.356;2023-04-15T04:46:00;20.53;;;10.97;;
40072;SDS011;25774;52.256;9.356;2023-04-15T04:48:25;19.50;;;11.23;;
40072;SDS011;25774;52.256;9.356;2023-04-15T04:50:51;18.23;;;10.65;;
40072;SDS011;25774;52.256;9.356;2023-04-15T04:53:16;22.23;;;11.40;;
40072;SDS011;25774;52.256;9.356;2023-04-15T04:55:42;21.83;;;11.02;;
40072;SDS011;25774;52.256;9.356;2023-04-15T04:58:07;21.53;;;11.53;;
40072;SDS011;25774;52.256;9.356;2023-04-15T05:00:32;20.77;;;11.23;;
40072;SDS011;25774;52.256;9.356;2023-04-15T05:02:58;23.37;;;11.03;;
40072;SDS011;25774;52.256;9.356;2023-04-15T05:05:23;21.60;;;11.00;;
40072;SDS011;25774;52.256;9.356;2023-04-15T05:07:48;22.17;;;12.67;;
40072;SDS011;25774;52.256;9.356;2023-04-15T05:10:14;20.83;;;11.10;;
40072;SDS011;25774;52.256;9.356;2023-04-15T05:12:43;19.67;;;10.80;;
40072;SDS011;25774;52.256;9.356;2023-04-15T05:15:08;24.05;;;11.63;;
40072;SDS011;25774;52.256;9.356;2023-04-15T05:17:34;20.43;;;10.97;;
40072;SDS011;25774;52.256;9.356;2023-04-15T05:19:59;24.23;;;13.63;;
40072;SDS011;25774;52.256;9.356;2023-04-15T05:22:24;20.63;;;11.27;;
40072;SDS011;25774;52.256;9.356;2023-04-15T05:24:50;24.27;;;12.30;;
40072;SDS011;25774;52.256;9.356;2023-04-15T05:27:15;22.05;;;12.48;;
40072;SDS011;25774;52.256;9.356;2023-04-15T05:29:40;21.30;;;11.77;;
40072;SDS011;25774;52.256;9.356;2023-04-15T05:32:05;22.93;;;12.07;;
40072;SDS011;25774;52.256;9.356;2023-04-15T05:34:32;25.50;;;13.10;;
40072;SDS011;25774;52.256;9.356;2023-04-15T05:39:22;20.27;;;10.98;;
40072;SDS011;25774;52.256;9.356;2023-04-15T05:41:47;24.43;;;13.37;;
40072;SDS011;25774;52.256;9.356;2023-04-15T05:44:12;23.80;;;12.33;;
40072;SDS011;25774;52.256;9.356;2023-04-15T05:46:38;19.90;;;11.00;;
40072;SDS011;25774;52.256;9.356;2023-04-15T05:49:03;23.87;;;12.03;;
40072;SDS011;25774;52.256;9.356;2023-04-15T05:51:28;23.73;;;11.93;;
40072;SDS011;25774;52.256;9.356;2023-04-15T05:53:53;22.43;;;11.90;;
40072;SDS011;25774;52.256;9.356;2023-04-15T05:56:18;18.13;;;10.70;;
40072;SDS011;25774;52.256;9.356;2023-04-15T05:58:44;20.05;;;10.60;;
40072;SDS011;25774;52.256;9.356;2023-04-15T06:01:10;21.57;;;10.03;;
40072;SDS011;25774;52.256;9.356;2023-04-15T06:03:35;22.90;;;11.37;;
40072;SDS011;25774;52.256;9.356;2023-04-15T06:06:01;19.77;;;10.68;;
40072;SDS011;25774;52.256;9.356;2023-04-15T06:08:27;20.23;;;10.67;;
40072;SDS011;25774;52.256;9.356;2023-04-15T06:10:52;17.03;;;10.10;;
40072;SDS011;25774;52.256;9.356;2023-04-15T06:13:17;21.50;;;10.90;;
40072;SDS011;25774;52.256;9.356;2023-04-15T06:15:42;17.83;;;9.97;;
40072;SDS011;25774;52.256;9.356;2023-04-15T06:18:07;17.43;;;9.80;;
40072;SDS011;25774;52.256;9.356;2023-04-15T06:20:34;18.67;;;9.53;;
40072;SDS011;25774;52.256;9.356;2023-04-15T06:22:59;17.83;;;9.52;;
40072;SDS011;25774;52.256;9.356;2023-04-15T06:25:24;14.70;;;8.73;;
40072;SDS011;25774;52.256;9.356;2023-04-15T06:27:49;16.65;;;9.48;;
40072;SDS011;25774;52.256;9.356;2023-04-15T06:30:14;18.03;;;9.40;;
40072;SDS011;25774;52.256;9.356;2023-04-15T06:32:40;16.57;;;8.37;;
40072;SDS011;25774;52.256;9.356;2023-04-15T06:35:05;17.23;;;8.33;;
40072;SDS011;25774;52.256;9.356;2023-04-15T06:37:30;17.13;;;7.93;;
40072;SDS011;25774;52.256;9.356;2023-04-15T06:39:56;12.70;;;7.30;;
40072;SDS011;25774;52.256;9.356;2023-04-15T06:42:22;13.17;;;7.30;;
40072;SDS011;25774;52.256;9.356;2023-04-15T06:44:47;14.33;;;7.67;;
40072;SDS011;25774;52.256;9.356;2023-04-15T06:47:12;14.57;;;7.13;;
40072;SDS011;25774;52.256;9.356;2023-04-15T06:49:38;12.68;;;6.20;;
40072;SDS011;25774;52.256;9.356;2023-04-15T06:52:04;12.73;;;6.70;;
40072;SDS011;25774;52.256;9.356;2023-04-15T06:54:29;10.33;;;6.17;;
40072;SDS011;25774;52.256;9.356;2023-04-15T06:56:56;9.50;;;5.83;;
40072;SDS011;25774;52.256;9.356;2023-04-15T06:59:21;11.63;;;6.07;;
40072;SDS011;25774;52.256;9.356;2023-04-15T07:01:46;9.80;;;5.23;;
40072;SDS011;25774;52.256;9.356;2023-04-15T07:04:11;9.13;;;4.80;;
40072;SDS011;25774;52.256;9.356;2023-04-15T07:06:37;8.63;;;4.45;;
40072;SDS011;25774;52.256;9.356;2023-04-15T07:09:03;11.00;;;6.00;;
40072;SDS011;25774;52.256;9.356;2023-04-15T07:13:54;14.67;;;5.57;;
40072;SDS011;25774;52.256;9.356;2023-04-15T07:16:19;9.73;;;5.20;;
40072;SDS011;25774;52.256;9.356;2023-04-15T07:18:45;10.15;;;5.30;;
40072;SDS011;25774;52.256;9.356;2023-04-15T07:21:10;11.65;;;5.75;;
40072;SDS011;25774;52.256;9.356;2023-04-15T07:23:36;7.65;;;4.80;;
40072;SDS011;25774;52.256;9.356;2023-04-15T07:26:02;10.93;;;4.90;;
40072;SDS011;25774;52.256;9.356;2023-04-15T07:28:28;9.90;;;4.93;;
40072;SDS011;25774;52.256;9.356;2023-04-15T07:30:54;9.80;;;5.27;;
40072;SDS011;25774;52.256;9.356;2023-04-15T07:33:21;9.07;;;5.20;;
40072;SDS011;25774;52.256;9.356;2023-04-15T07:35:46;9.97;;;4.97;;
40072;SDS011;25774;52.256;9.356;2023-04-15T07:38:11;11.43;;;4.73;;
40072;SDS011;25774;52.256;9.356;2023-04-15T07:40:37;7.30;;;4.32;;
40072;SDS011;25774;52.256;9.356;2023-04-15T07:43:03;9.02;;;4.88;;
40072;SDS011;25774;52.256;9.356;2023-04-15T07:45:28;8.00;;;4.70;;
40072;SDS011;25774;52.256;9.356;2023-04-15T07:47:53;9.50;;;4.90;;
40072;SDS011;25774;52.256;9.356;2023-04-15T07:50:20;9.68;;;4.80;;
40072;SDS011;25774;52.256;9.356;2023-04-15T07:52:45;7.97;;;4.30;;
40072;SDS011;25774;52.256;9.356;2023-04-15T07:55:11;9.20;;;4.00;;
40072;SDS011;25774;52.256;9.356;2023-04-15T07:57:36;8.00;;;4.70;;
40072;SDS011;25774;52.256;9.356;2023-04-15T08:00:02;6.33;;;4.00;;
40072;SDS011;25774;52.256;9.356;2023-04-15T08:02:29;7.15;;;3.90;;
40072;SDS011;25774;52.256;9.356;2023-04-15T08:04:54;7.67;;;4.40;;
40072;SDS011;25774;52.256;9.356;2023-04-15T08:07:19;8.40;;;4.83;;
40072;SDS011;25774;52.256;9.356;2023-04-15T08:09:45;7.50;;;4.35;;
40072;SDS011;25774;52.256;9.356;2023-04-15T08:12:10;7.80;;;4.50;;
40072;SDS011;25774;52.256;9.356;2023-04-15T08:17:02;6.77;;;3.77;;
40072;SDS011;25774;52.256;9.356;2023-04-15T08:19:28;9.13;;;5.00;;
40072;SDS011;25774;52.256;9.356;2023-04-15T08:21:53;8.70;;;4.23;;
40072;SDS011;25774;52.256;9.356;2023-04-15T08:24:20;7.97;;;4.53;;
40072;SDS011;25774;52.256;9.356;2023-04-15T08:26:45;7.90;;;4.45;;
40072;SDS011;25774;52.256;9.356;2023-04-15T08:29:12;9.25;;;5.20;;
40072;SDS011;25774;52.256;9.356;2023-04-15T08:31:37;10.80;;;5.10;;
40072;SDS011;25774;52.256;9.356;2023-04-15T08:34:02;8.67;;;5.23;;
40072;SDS011;25774;52.256;9.356;2023-04-15T08:36:28;8.70;;;4.80;;
40072;SDS011;25774;52.256;9.356;2023-04-15T08:38:53;9.33;;;5.20;;
40072;SDS011;25774;52.256;9.356;2023-04-15T08:41:22;7.63;;;4.53;;
40072;SDS011;25774;52.256;9.356;2023-04-15T08:46:19;8.05;;;5.13;;
40072;SDS011;25774;52.256;9.356;2023-04-15T08:48:44;9.65;;;5.07;;
40072;SDS011;25774;52.256;9.356;2023-04-15T08:53:39;10.30;;;5.38;;
40072;SDS011;25774;52.256;9.356;2023-04-15T08:56:05;10.27;;;6.47;;
40072;SDS011;25774;52.256;9.356;2023-04-15T09:00:56;8.95;;;5.45;;
40072;SDS011;25774;52.256;9.356;2023-04-15T09:03:22;11.13;;;6.80;;
40072;SDS011;25774;52.256;9.356;2023-04-15T09:08:14;9.67;;;5.97;;
40072;SDS011;25774;52.256;9.356;2023-04-15T09:10:39;9.45;;;5.50;;
40072;SDS011;25774;52.256;9.356;2023-04-15T09:13:04;9.43;;;5.50;;
40072;SDS011;25774;52.256;9.356;2023-04-15T09:15:29;10.50;;;6.03;;
40072;SDS011;25774;52.256;9.356;2023-04-15T09:17:57;10.43;;;5.63;;
40072;SDS011;25774;52.256;9.356;2023-04-15T09:20:23;9.23;;;5.57;;
40072;SDS011;25774;52.256;9.356;2023-04-15T09:22:49;8.50;;;5.22;;
40072;SDS011;25774;52.256;9.356;2023-04-15T09:27:50;9.38;;;5.43;;
40072;SDS011;25774;52.256;9.356;2023-04-15T09:30:15;8.45;;;4.85;;
40072;SDS011;25774;52.256;9.356;2023-04-15T09:33:14;7.47;;;4.93;;
40072;SDS011;25774;52.256;9.356;2023-04-15T09:35:34;8.63;;;4.93;;
40072;SDS011;25774;52.256;9.356;2023-04-15T09:38:04;7.53;;;4.63;;
40072;SDS011;25774;52.256;9.356;2023-04-15T09:40:33;9.80;;;5.38;;
40072;SDS011;25774;52.256;9.356;2023-04-15T09:42:59;9.00;;;5.03;;
40072;SDS011;25774;52.256;9.356;2023-04-15T09:45:25;10.95;;;4.88;;
40072;SDS011;25774;52.256;9.356;2023-04-15T09:47:51;7.70;;;4.40;;
40072;SDS011;25774;52.256;9.356;2023-04-15T09:50:17;8.03;;;5.17;;
40072;SDS011;25774;52.256;9.356;2023-04-15T09:52:43;8.85;;;4.70;;
40072;SDS011;25774;52.256;9.356;2023-04-15T09:55:08;7.07;;;4.28;;
40072;SDS011;25774;52.256;9.356;2023-04-15T09:57:34;5.20;;;3.22;;
40072;SDS011;25774;52.256;9.356;2023-04-15T10:00:00;6.72;;;4.32;;
40072;SDS011;25774;52.256;9.356;2023-04-15T10:02:25;7.00;;;4.13;;
40072;SDS011;25774;52.256;9.356;2023-04-15T10:04:51;7.57;;;4.20;;
40072;SDS011;25774;52.256;9.356;2023-04-15T10:07:16;9.37;;;5.27;;
40072;SDS011;25774;52.256;9.356;2023-04-15T10:09:44;6.60;;;3.97;;
40072;SDS011;25774;52.256;9.356;2023-04-15T10:12:10;8.82;;;4.38;;
40072;SDS011;25774;52.256;9.356;2023-04-15T10:14:37;6.63;;;4.30;;
40072;SDS011;25774;52.256;9.356;2023-04-15T10:17:02;6.18;;;3.70;;
40072;SDS011;25774;52.256;9.356;2023-04-15T10:19:30;6.50;;;3.88;;
40072;SDS011;25774;52.256;9.356;2023-04-15T10:21:55;8.15;;;4.32;;
40072;SDS011;25774;52.256;9.356;2023-04-15T10:24:21;9.07;;;4.47;;
40072;SDS011;25774;52.256;9.356;2023-04-15T10:26:46;6.45;;;4.05;;
40072;SDS011;25774;52.256;9.356;2023-04-15T10:29:12;5.13;;;3.47;;
40072;SDS011;25774;52.256;9.356;2023-04-15T10:31:37;7.15;;;4.00;;
40072;SDS011;25774;52.256;9.356;2023-04-15T10:34:04;6.35;;;3.90;;
40072;SDS011;25774;52.256;9.356;2023-04-15T10:36:30;6.65;;;3.70;;
40072;SDS011;25774;52.256;9.356;2023-04-15T10:38:56;6.90;;;3.72;;
40072;SDS011;25774;52.256;9.356;2023-04-15T10:41:22;6.43;;;3.93;;
40072;SDS011;25774;52.256;9.356;2023-04-15T10:43:49;6.63;;;3.97;;
40072;SDS011;25774;52.256;9.356;2023-04-15T10:46:18;7.15;;;3.65;;
40072;SDS011;25774;52.256;9.356;2023-04-15T10:48:51;6.07;;;3.67;;
40072;SDS011;25774;52.256;9.356;2023-04-15T10:51:25;6.78;;;3.70;;
40072;SDS011;25774;52.256;9.356;2023-04-15T10:53:50;7.10;;;4.28;;
40072;SDS011;25774;52.256;9.356;2023-04-15T10:56:19;7.63;;;4.22;;
40072;SDS011;25774;52.256;9.356;2023-04-15T10:58:45;8.83;;;4.50;;
40072;SDS011;25774;52.256;9.356;2023-04-15T11:01:10;6.50;;;3.90;;
40072;SDS011;25774;52.256;9.356;2023-04-15T11:03:38;7.13;;;4.40;;
40072;SDS011;25774;52.256;9.356;2023-04-15T11:06:04;7.15;;;3.92;;
40072;SDS011;25774;52.256;9.356;2023-04-15T11:11:14;7.68;;;4.40;;
40072;SDS011;25774;52.256;9.356;2023-04-15T11:13:46;9.63;;;4.77;;
40072;SDS011;25774;52.256;9.356;2023-04-15T11:16:12;8.27;;;4.95;;
40072;SDS011;25774;52.256;9.356;2023-04-15T11:18:37;8.93;;;4.70;;
40072;SDS011;25774;52.256;9.356;2023-04-15T11:21:05;8.20;;;4.80;;
40072;SDS011;25774;52.256;9.356;2023-04-15T11:23:48;7.68;;;5.35;;
40072;SDS011;25774;52.256;9.356;2023-04-15T11:26:15;10.23;;;5.65;;
40072;SDS011;25774;52.256;9.356;2023-04-15T11:28:43;8.97;;;5.67;;
40072;SDS011;25774;52.256;9.356;2023-04-15T11:31:10;9.32;;;5.82;;
40072;SDS011;25774;52.256;9.356;2023-04-15T11:36:00;9.18;;;5.43;;
40072;SDS011;25774;52.256;9.356;2023-04-15T11:38:26;11.33;;;6.23;;
40072;SDS011;25774;52.256;9.356;2023-04-15T11:40:52;11.32;;;5.90;;
40072;SDS011;25774;52.256;9.356;2023-04-15T11:43:19;11.23;;;6.05;;
40072;SDS011;25774;52.256;9.356;2023-04-15T11:45:55;11.88;;;6.88;;
40072;SDS011;25774;52.256;9.356;2023-04-15T11:48:24;11.70;;;6.88;;
40072;SDS011;25774;52.256;9.356;2023-04-15T11:50:58;12.75;;;6.95;;
40072;SDS011;25774;52.256;9.356;2023-04-15T11:53:23;11.95;;;7.00;;
40072;SDS011;25774;52.256;9.356;2023-04-15T11:55:49;14.00;;;7.10;;
40072;SDS011;25774;52.256;9.356;2023-04-15T11:58:16;14.60;;;8.98;;
40072;SDS011;25774;52.256;9.356;2023-04-15T12:00:45;14.07;;;7.82;;
40072;SDS011;25774;52.256;9.356;2023-04-15T12:03:19;16.02;;;8.35;;
40072;SDS011;25774;52.256;9.356;2023-04-15T12:11:14;18.13;;;9.02;;
40072;SDS011;25774;52.256;9.356;2023-04-15T12:13:46;15.55;;;8.80;;
40072;SDS011;25774;52.256;9.356;2023-04-15T12:16:11;18.52;;;9.45;;
40072;SDS011;25774;52.256;9.356;2023-04-15T12:18:37;19.93;;;10.17;;
40072;SDS011;25774;52.256;9.356;2023-04-15T12:21:08;15.80;;;9.23;;
40072;SDS011;25774;52.256;9.356;2023-04-15T12:23:37;16.92;;;9.68;;
40072;SDS011;25774;52.256;9.356;2023-04-15T12:26:06;20.27;;;10.50;;
40072;SDS011;25774;52.256;9.356;2023-04-15T12:28:33;23.70;;;11.00;;
40072;SDS011;25774;52.256;9.356;2023-04-15T12:30:58;24.52;;;12.00;;
40072;SDS011;25774;52.256;9.356;2023-04-15T12:33:31;22.03;;;10.30;;
40072;SDS011;25774;52.256;9.356;2023-04-15T12:35:56;20.70;;;10.85;;
40072;SDS011;25774;52.256;9.356;2023-04-15T12:38:22;20.63;;;11.03;;
40072;SDS011;25774;52.256;9.356;2023-04-15T12:40:47;22.40;;;11.03;;
40072;SDS011;25774;52.256;9.356;2023-04-15T12:43:12;23.77;;;12.57;;
40072;SDS011;25774;52.256;9.356;2023-04-15T12:45:37;27.13;;;12.90;;
40072;SDS011;25774;52.256;9.356;2023-04-15T12:48:03;22.73;;;12.10;;
40072;SDS011;25774;52.256;9.356;2023-04-15T12:50:29;26.83;;;12.30;;
40072;SDS011;25774;52.256;9.356;2023-04-15T12:52:54;25.23;;;12.35;;
40072;SDS011;25774;52.256;9.356;2023-04-15T12:55:19;31.03;;;13.77;;
40072;SDS011;25774;52.256;9.356;2023-04-15T12:57:45;25.27;;;12.67;;
40072;SDS011;25774;52.256;9.356;2023-04-15T13:00:10;23.80;;;12.87;;
40072;SDS011;25774;52.256;9.356;2023-04-15T13:02:36;27.95;;;14.40;;
40072;SDS011;25774;52.256;9.356;2023-04-15T13:05:01;29.10;;;13.80;;
40072;SDS011;25774;52.256;9.356;2023-04-15T13:07:26;28.27;;;14.40;;
40072;SDS011;25774;52.256;9.356;2023-04-15T13:09:52;31.97;;;14.53;;
40072;SDS011;25774;52.256;9.356;2023-04-15T13:12:18;32.65;;;15.77;;
40072;SDS011;25774;52.256;9.356;2023-04-15T13:14:43;30.57;;;15.10;;
40072;SDS011;25774;52.256;9.356;2023-04-15T13:17:08;35.17;;;16.17;;
40072;SDS011;25774;52.256;9.356;2023-04-15T13:19:35;34.38;;;17.02;;
40072;SDS011;25774;52.256;9.356;2023-04-15T13:22:01;34.47;;;16.17;;
40072;SDS011;25774;52.256;9.356;2023-04-15T13:24:26;28.13;;;14.00;;
40072;SDS011;25774;52.256;9.356;2023-04-15T13:26:51;34.97;;;15.93;;
40072;SDS011;25774;52.256;9.356;2023-04-15T13:29:17;37.65;;;16.05;;
40072;SDS011;25774;52.256;9.356;2023-04-15T13:31:42;35.30;;;16.03;;
40072;SDS011;25774;52.256;9.356;2023-04-15T13:34:09;36.00;;;15.97;;
40072;SDS011;25774;52.256;9.356;2023-04-15T13:36:34;32.35;;;16.05;;
40072;SDS011;25774;52.256;9.356;2023-04-15T13:38:59;30.33;;;15.30;;
40072;SDS011;25774;52.256;9.356;2023-04-15T13:41:24;34.23;;;16.37;;
40072;SDS011;25774;52.256;9.356;2023-04-15T13:43:50;38.10;;;17.90;;
40072;SDS011;25774;52.256;9.356;2023-04-15T13:46:16;36.10;;;16.37;;
40072;SDS011;25774;52.256;9.356;2023-04-15T13:48:41;37.05;;;16.30;;
40072;SDS011;25774;52.256;9.356;2023-04-15T13:51:07;34.27;;;15.90;;
40072;SDS011;25774;52.256;9.356;2023-04-15T13:53:34;40.83;;;18.23;;
40072;SDS011;25774;52.256;9.356;2023-04-15T13:56:00;35.50;;;16.63;;
40072;SDS011;25774;52.256;9.356;2023-04-15T13:58:25;41.60;;;19.27;;
40072;SDS011;25774;52.256;9.356;2023-04-15T14:00:50;38.70;;;18.20;;
40072;SDS011;25774;52.256;9.356;2023-04-15T14:03:15;43.10;;;19.43;;
40072;SDS011;25774;52.256;9.356;2023-04-15T14:05:40;43.03;;;19.47;;
40072;SDS011;25774;52.256;9.356;2023-04-15T14:08:06;42.10;;;18.13;;
40072;SDS011;25774;52.256;9.356;2023-04-15T14:10:31;33.40;;;17.73;;
40072;SDS011;25774;52.256;9.356;2023-04-15T14:12:56;48.10;;;19.47;;
40072;SDS011;25774;52.256;9.356;2023-04-15T14:15:21;41.27;;;20.13;;
40072;SDS011;25774;52.256;9.356;2023-04-15T14:17:46;49.23;;;21.67;;
40072;SDS011;25774;52.256;9.356;2023-04-15T14:20:12;43.17;;;20.67;;
40072;SDS011;25774;52.256;9.356;2023-04-15T14:22:37;51.20;;;21.77;;
40072;SDS011;25774;52.256;9.356;2023-04-15T14:25:02;41.53;;;21.40;;
40072;SDS011;25774;52.256;9.356;2023-04-15T14:27:28;47.23;;;21.10;;
40072;SDS011;25774;52.256;9.356;2023-04-15T14:29:53;48.83;;;20.77;;
40072;SDS011;25774;52.256;9.356;2023-04-15T14:32:18;43.93;;;20.97;;
40072;SDS011;25774;52.256;9.356;2023-04-15T14:34:44;46.50;;;21.63;;
40072;SDS011;25774;52.256;9.356;2023-04-15T14:37:09;48.83;;;20.73;;
40072;SDS011;25774;52.256;9.356;2023-04-15T14:39:34;44.27;;;21.80;;
40072;SDS011;25774;52.256;9.356;2023-04-15T14:41:59;51.53;;;22.97;;
40072;SDS011;25774;52.256;9.356;2023-04-15T14:44:25;48.43;;;23.57;;
40072;SDS011;25774;52.256;9.356;2023-04-15T14:46:50;51.37;;;24.40;;
40072;SDS011;25774;52.256;9.356;2023-04-15T14:49:15;53.87;;;25.10;;
40072;SDS011;25774;52.256;9.356;2023-04-15T14:51:41;54.17;;;24.17;;
40072;SDS011;25774;52.256;9.356;2023-04-15T14:54:06;52.23;;;23.50;;
40072;SDS011;25774;52.256;9.356;2023-04-15T14:56:31;52.87;;;23.33;;
40072;SDS011;25774;52.256;9.356;2023-04-15T14:58:57;50.80;;;24.67;;